Terminal Aerodrome Forecast
Issued by NWS

Home | Current Version | Previous Version | Text Only | Print | Product List | Glossary On
Versions: 1 2 3 4 5 6 7 8 9 10 11 12 13 14 15 16
056
FTUS42 TJSJ 210526
TAFJPS
TAF
TJPS 210526Z 2106/2206 17020G30KT 3SM SHRA VCTS BKN015CB
      TEMPO 2106/2109 1SM +SHRA BKN010
     FM211400 18015G25KT 5SM SHRA BKN025
     FM212000 18010G20KT P6SM VCSH SCT025 BKN045
     FM220200 18010KT P6SM VCSH SCT025
      AMD NOT SKED=

USA.gov is the U.S. government's official web portal to all federal, state and local government web resources and services.